createdAt,value
2018-05-03T00:00:59.974Z,18.20
2018-05-03T00:01:59.969Z,18.50
2018-05-03T00:02:59.949Z,19.20
2018-05-03T00:03:59.942Z,19.80
2018-05-03T00:04:59.938Z,21.30
2018-05-03T00:05:59.930Z,20.90
2018-05-03T00:06:59.923Z,22.10
2018-05-03T00:07:59.917Z,21.10
2018-05-03T00:08:59.910Z,21.80
2018-05-03T00:09:59.901Z,21.70
2018-05-03T00:10:59.897Z,21.10
2018-05-03T00:11:59.889Z,22.70
2018-05-03T00:12:59.882Z,23.30
2018-05-03T00:13:59.877Z,22.90
2018-05-03T00:14:59.868Z,23.50
2018-05-03T00:15:59.862Z,23.00
2018-05-03T00:16:59.857Z,23.10
2018-05-03T00:17:59.857Z,22.70
2018-05-03T00:18:59.843Z,23.30
2018-05-03T00:19:59.836Z,22.20
2018-05-03T00:20:59.834Z,21.80
2018-05-03T00:21:59.822Z,23.60
2018-05-03T00:22:59.818Z,23.30
2018-05-03T00:23:59.808Z,23.00
2018-05-03T00:24:59.804Z,22.90
2018-05-03T00:25:59.794Z,23.30
2018-05-03T00:26:59.787Z,23.70
2018-05-03T00:27:59.782Z,24.40
2018-05-03T00:28:59.774Z,25.10
2018-05-03T00:29:59.767Z,25.30
2018-05-03T00:30:59.760Z,24.40
2018-05-03T00:31:59.752Z,25.20
2018-05-03T00:32:59.748Z,25.60
2018-05-03T00:33:59.741Z,25.70
2018-05-03T00:34:59.734Z,24.40
2018-05-03T00:35:59.728Z,23.80
2018-05-03T00:36:59.727Z,23.90
2018-05-03T00:37:59.715Z,25.10
2018-05-03T00:38:59.705Z,25.10
2018-05-03T00:39:59.698Z,24.70
2018-05-03T00:40:59.692Z,23.40
2018-05-03T00:41:59.686Z,23.40
2018-05-03T00:42:59.676Z,23.80
2018-05-03T00:43:59.672Z,23.90
2018-05-03T00:44:59.663Z,23.10
2018-05-03T00:45:59.658Z,22.50
2018-05-03T00:46:59.650Z,22.80
2018-05-03T00:47:59.642Z,21.30
2018-05-03T00:48:59.687Z,20.40
2018-05-03T00:49:59.629Z,20.50
2018-05-03T00:50:59.622Z,19.60
2018-05-03T00:51:59.614Z,18.00
2018-05-03T00:52:59.608Z,18.10
2018-05-03T00:53:59.602Z,18.70
2018-05-03T00:54:59.593Z,18.60
2018-05-03T00:55:59.587Z,18.10
2018-05-03T00:56:59.583Z,18.00
2018-05-03T00:57:59.575Z,18.30
2018-05-03T00:58:59.566Z,17.20
2018-05-03T00:59:59.560Z,16.30
2018-05-03T01:00:59.755Z,15.50
2018-05-03T01:01:59.547Z,15.80
2018-05-03T01:02:59.539Z,16.20
2018-05-03T01:03:59.533Z,15.20
2018-05-03T01:04:59.526Z,16.50
2018-05-03T01:05:59.519Z,16.50
2018-05-03T01:06:59.512Z,17.30
2018-05-03T01:07:59.506Z,17.30
2018-05-03T01:08:59.499Z,16.90
2018-05-03T01:09:59.491Z,17.40
2018-05-03T01:10:59.486Z,17.20
2018-05-03T01:11:59.479Z,17.60
2018-05-03T01:12:59.473Z,16.80
2018-05-03T01:13:59.465Z,17.90
2018-05-03T01:14:59.458Z,17.00
2018-05-03T01:15:59.451Z,17.40
2018-05-03T01:16:59.444Z,17.50
2018-05-03T01:17:59.442Z,18.30
2018-05-03T01:18:59.430Z,17.90
2018-05-03T01:19:59.424Z,18.30
2018-05-03T01:20:59.418Z,18.50
2018-05-03T01:21:59.424Z,19.00
2018-05-03T01:22:59.404Z,19.50
2018-05-03T01:23:59.398Z,19.70
2018-05-03T01:24:59.391Z,19.00
2018-05-03T01:25:59.384Z,19.80
2018-05-03T01:26:59.376Z,21.20
2018-05-03T01:27:59.370Z,20.10
2018-05-03T01:28:59.364Z,20.00
2018-05-03T01:29:59.357Z,20.30
2018-05-03T01:30:59.350Z,19.90
2018-05-03T01:31:59.343Z,20.00
2018-05-03T01:32:59.337Z,21.30
2018-05-03T01:33:59.330Z,21.10
2018-05-03T01:34:59.393Z,21.20
2018-05-03T01:35:59.316Z,20.90
2018-05-03T01:36:59.310Z,20.80
2018-05-03T01:37:59.305Z,20.80
2018-05-03T01:38:59.296Z,20.60
2018-05-03T01:39:59.289Z,23.90
2018-05-03T01:40:59.284Z,22.10
2018-05-03T01:41:59.277Z,22.50
2018-05-03T01:42:59.269Z,23.20
2018-05-03T01:43:59.264Z,24.70
2018-05-03T01:44:59.256Z,24.30
2018-05-03T01:45:59.251Z,25.30
2018-05-03T01:46:59.245Z,25.00
2018-05-03T01:47:59.236Z,24.20
2018-05-03T01:48:59.231Z,24.50
2018-05-03T01:49:59.223Z,23.40
2018-05-03T01:50:59.217Z,24.00
2018-05-03T01:51:59.210Z,23.50
2018-05-03T01:52:59.203Z,23.80
2018-05-03T01:53:59.197Z,23.60
2018-05-03T01:54:59.190Z,24.00
2018-05-03T01:55:59.185Z,23.70
2018-05-03T01:56:59.177Z,23.40
2018-05-03T01:57:59.170Z,24.40
2018-05-03T01:58:59.162Z,23.80
2018-05-03T01:59:59.156Z,24.20
2018-05-03T02:00:59.151Z,25.80
2018-05-03T02:01:59.143Z,25.10
2018-05-03T02:02:59.134Z,25.70
2018-05-03T02:03:59.128Z,25.10
2018-05-03T02:04:59.122Z,26.30
2018-05-03T02:05:59.118Z,26.60
2018-05-03T02:06:59.112Z,26.30
2018-05-03T02:07:59.103Z,26.40
2018-05-03T02:08:59.096Z,27.80
2018-05-03T02:09:59.088Z,26.50
2018-05-03T02:10:59.080Z,25.70
2018-05-03T02:11:59.074Z,24.90
2018-05-03T02:12:59.067Z,26.50
2018-05-03T02:13:59.061Z,26.00
2018-05-03T02:14:59.055Z,28.00
2018-05-03T02:15:59.048Z,27.10
2018-05-03T02:16:59.040Z,27.20
2018-05-03T02:17:59.084Z,27.20
2018-05-03T02:18:59.027Z,27.40
2018-05-03T02:19:59.021Z,27.40
2018-05-03T02:20:59.015Z,26.60
2018-05-03T02:21:59.008Z,27.80
2018-05-03T02:22:59.000Z,26.50
2018-05-03T02:23:58.994Z,26.70
2018-05-03T02:24:58.986Z,28.90
2018-05-03T02:25:58.985Z,26.50
2018-05-03T02:26:58.974Z,27.50
2018-05-03T02:27:58.966Z,28.30
2018-05-03T02:28:58.959Z,27.60
2018-05-03T02:29:58.955Z,27.70
2018-05-03T02:30:58.946Z,26.80
2018-05-03T02:31:58.941Z,27.90
2018-05-03T02:32:58.934Z,28.00
2018-05-03T02:33:58.928Z,27.80
2018-05-03T02:34:58.924Z,29.10
2018-05-03T02:35:59.112Z,28.10
2018-05-03T02:36:58.913Z,28.50
2018-05-03T02:37:58.904Z,29.80
2018-05-03T02:38:58.892Z,28.30
2018-05-03T02:39:58.885Z,29.30
2018-05-03T02:40:58.880Z,28.70
2018-05-03T02:41:58.877Z,29.70
2018-05-03T02:42:58.871Z,30.70
2018-05-03T02:43:58.871Z,29.80
2018-05-03T02:44:58.852Z,29.50
2018-05-03T02:45:58.851Z,29.00
2018-05-03T02:46:58.838Z,28.80
2018-05-03T02:47:58.834Z,28.70
2018-05-03T02:48:58.826Z,28.40
2018-05-03T02:49:58.820Z,28.80
2018-05-03T02:50:58.814Z,28.50
2018-05-03T02:51:58.805Z,29.20
2018-05-03T02:52:58.801Z,28.20
2018-05-03T02:53:58.791Z,28.60
2018-05-03T02:54:58.788Z,27.70
2018-05-03T02:55:58.778Z,26.90
2018-05-03T02:56:58.771Z,29.00
2018-05-03T02:57:58.764Z,30.00
2018-05-03T02:58:58.760Z,30.40
2018-05-03T02:59:58.751Z,29.90
2018-05-03T03:00:58.742Z,28.50
2018-05-03T03:01:58.735Z,29.00
2018-05-03T03:02:58.730Z,29.40
2018-05-03T03:03:58.721Z,29.30
2018-05-03T03:04:58.714Z,30.00
2018-05-03T03:05:58.708Z,27.60
2018-05-03T03:06:58.701Z,28.80
2018-05-03T03:07:58.700Z,27.90
2018-05-03T03:08:58.693Z,28.60
2018-05-03T03:09:58.680Z,29.20
2018-05-03T03:10:58.673Z,29.40
2018-05-03T03:11:58.667Z,28.60
2018-05-03T03:12:58.662Z,29.20
2018-05-03T03:13:58.653Z,28.40
2018-05-03T03:14:58.644Z,25.70
2018-05-03T03:15:58.639Z,26.10
2018-05-03T03:16:58.631Z,25.00
2018-05-03T03:17:58.625Z,25.30
2018-05-03T03:18:58.615Z,25.20
2018-05-03T03:19:58.608Z,24.80
2018-05-03T03:20:58.602Z,24.00
2018-05-03T03:21:58.684Z,21.00
2018-05-03T03:22:58.589Z,21.20
2018-05-03T03:23:58.580Z,19.30
2018-05-03T03:24:58.574Z,16.60
2018-05-03T03:25:58.567Z,15.70
2018-05-03T03:26:58.565Z,16.00
2018-05-03T03:27:58.552Z,13.60
2018-05-03T03:28:58.546Z,14.90
2018-05-03T03:29:58.539Z,13.50
2018-05-03T03:30:58.531Z,13.70
2018-05-03T03:31:58.529Z,13.40
2018-05-03T03:32:58.522Z,11.40
2018-05-03T03:33:58.510Z,10.10
2018-05-03T03:34:58.503Z,10.30
2018-05-03T03:35:58.496Z,11.10
2018-05-03T03:36:58.489Z,10.30
2018-05-03T03:37:58.482Z,10.60
2018-05-03T03:38:58.476Z,10.80
2018-05-03T03:39:58.469Z,10.50
2018-05-03T03:40:58.462Z,10.40
2018-05-03T03:41:58.454Z,10.90
2018-05-03T03:42:58.446Z,10.40
2018-05-03T03:43:58.439Z,11.00
2018-05-03T03:44:58.432Z,10.70
2018-05-03T03:45:58.426Z,10.30
2018-05-03T03:46:58.417Z,10.90
2018-05-03T03:47:58.416Z,11.10
2018-05-03T03:48:58.407Z,10.40
2018-05-03T03:49:58.396Z,11.00
2018-05-03T03:50:58.389Z,10.90
2018-05-03T03:51:58.383Z,11.70
2018-05-03T03:52:58.375Z,10.70
2018-05-03T03:53:58.374Z,10.90
2018-05-03T03:54:58.363Z,11.10
2018-05-03T03:55:58.354Z,10.80
2018-05-03T03:56:58.348Z,11.10
2018-05-03T03:57:58.341Z,11.10
2018-05-03T03:58:58.337Z,11.30
2018-05-03T03:59:58.327Z,10.60
2018-05-03T04:00:58.319Z,10.50
2018-05-03T04:01:58.312Z,11.10
2018-05-03T04:02:58.305Z,11.40
2018-05-03T04:03:58.299Z,11.80
2018-05-03T04:04:58.290Z,12.40
2018-05-03T04:05:58.284Z,11.10
2018-05-03T04:06:58.276Z,11.40
2018-05-03T04:07:58.271Z,11.20
2018-05-03T04:08:58.263Z,11.30
2018-05-03T04:09:58.257Z,11.40
2018-05-03T04:10:58.248Z,10.90
2018-05-03T04:11:58.241Z,10.60
2018-05-03T04:12:58.237Z,10.70
2018-05-03T04:13:58.227Z,11.60
2018-05-03T04:14:58.220Z,11.80
2018-05-03T04:15:58.213Z,11.90
2018-05-03T04:16:58.206Z,11.50
2018-05-03T04:17:58.401Z,11.50
2018-05-03T04:18:58.192Z,12.30
2018-05-03T04:19:58.185Z,13.00
2018-05-03T04:20:58.178Z,14.20
2018-05-03T04:21:58.171Z,12.90
2018-05-03T04:22:58.163Z,12.50
2018-05-03T04:23:58.156Z,13.80
2018-05-03T04:24:58.149Z,13.70
2018-05-03T04:25:58.142Z,12.60
2018-05-03T04:26:58.134Z,13.00
2018-05-03T04:27:58.128Z,13.10
2018-05-03T04:28:58.120Z,13.00
2018-05-03T04:29:58.113Z,12.20
2018-05-03T04:30:58.105Z,13.40
2018-05-03T04:31:58.098Z,12.60
2018-05-03T04:32:58.092Z,12.50
2018-05-03T04:33:58.085Z,12.30
2018-05-03T04:34:58.076Z,12.40
2018-05-03T04:35:58.078Z,12.00
2018-05-03T04:36:58.063Z,12.30
2018-05-03T04:37:58.056Z,12.80
2018-05-03T04:38:58.049Z,12.00
2018-05-03T04:39:58.042Z,12.40
2018-05-03T04:40:58.038Z,12.40
2018-05-03T04:41:58.027Z,13.80
2018-05-03T04:42:58.020Z,12.60
2018-05-03T04:43:58.015Z,12.90
2018-05-03T04:44:58.007Z,12.70
2018-05-03T04:45:58.006Z,11.60
2018-05-03T04:46:58.001Z,12.70
2018-05-03T04:47:57.982Z,12.50
2018-05-03T04:48:57.976Z,12.80
2018-05-03T04:49:57.969Z,12.40
2018-05-03T04:50:57.962Z,13.20
2018-05-03T04:51:57.954Z,13.00
2018-05-03T04:52:57.947Z,12.80
2018-05-03T04:53:57.944Z,13.20
2018-05-03T04:54:57.932Z,12.50
2018-05-03T04:55:57.925Z,13.60
2018-05-03T04:56:57.918Z,12.90
2018-05-03T04:57:57.911Z,13.20
2018-05-03T04:58:57.905Z,13.90
2018-05-03T04:59:57.905Z,13.90
2018-05-03T05:00:57.891Z,14.00
2018-05-03T05:01:57.891Z,13.40
2018-05-03T05:02:57.875Z,13.50
2018-05-03T05:03:57.869Z,14.00
2018-05-03T05:04:57.862Z,14.20
2018-05-03T05:05:57.853Z,13.90
2018-05-03T05:06:57.846Z,16.00
2018-05-03T05:07:57.839Z,14.40
2018-05-03T05:08:57.832Z,15.70
2018-05-03T05:09:57.824Z,16.10
2018-05-03T05:10:57.816Z,14.80
2018-05-03T05:11:58.011Z,15.00
2018-05-03T05:12:57.802Z,14.50
2018-05-03T05:13:57.796Z,15.60
2018-05-03T05:14:57.789Z,15.50
2018-05-03T05:15:57.780Z,15.20
2018-05-03T05:16:57.773Z,15.20
2018-05-03T05:17:58.011Z,15.10
2018-05-03T05:18:57.762Z,15.70
2018-05-03T05:19:57.752Z,15.20
2018-05-03T05:20:57.744Z,15.70
2018-05-03T05:21:57.737Z,15.60
2018-05-03T05:22:57.728Z,15.60
2018-05-03T05:23:57.721Z,15.90
2018-05-03T05:24:57.718Z,15.70
2018-05-03T05:25:57.707Z,15.80
2018-05-03T05:26:57.698Z,16.20
2018-05-03T05:27:57.691Z,15.00
2018-05-03T05:28:57.685Z,16.60
2018-05-03T05:29:57.878Z,15.20
2018-05-03T05:30:57.673Z,15.30
2018-05-03T05:31:57.662Z,15.70
2018-05-03T05:32:57.658Z,16.90
2018-05-03T05:33:57.648Z,15.40
2018-05-03T05:34:57.639Z,15.70
2018-05-03T05:35:57.633Z,15.60
2018-05-03T05:36:57.626Z,16.70
2018-05-03T05:37:57.620Z,16.30
2018-05-03T05:38:57.702Z,16.60
2018-05-03T05:39:57.603Z,16.50
2018-05-03T05:40:57.598Z,16.50
2018-05-03T05:41:57.790Z,17.60
2018-05-03T05:42:57.581Z,19.00
2018-05-03T05:43:57.656Z,17.80
2018-05-03T05:44:57.567Z,18.20
2018-05-03T05:45:57.560Z,17.30
2018-05-03T05:46:57.552Z,18.50
2018-05-03T05:47:57.547Z,19.50
2018-05-03T05:48:57.540Z,18.40
2018-05-03T05:49:57.531Z,18.00
2018-05-03T05:50:57.533Z,17.40
2018-05-03T05:51:57.517Z,17.10
2018-05-03T05:52:57.509Z,18.10
2018-05-03T05:53:57.504Z,17.10
2018-05-03T05:54:57.495Z,18.20
2018-05-03T05:55:57.486Z,19.00
2018-05-03T05:56:57.480Z,19.50
2018-05-03T05:57:57.474Z,18.80
2018-05-03T05:58:57.466Z,17.50
2018-05-03T05:59:57.660Z,16.90
2018-05-03T06:00:57.451Z,18.80
2018-05-03T06:01:57.444Z,17.90
2018-05-03T06:02:57.435Z,17.20
2018-05-03T06:03:57.429Z,17.90
2018-05-03T06:04:57.421Z,19.40
2018-05-03T06:05:57.413Z,17.90
2018-05-03T06:06:57.405Z,18.60
2018-05-03T06:07:57.399Z,18.40
2018-05-03T06:08:57.390Z,17.80
2018-05-03T06:09:57.386Z,18.40
2018-05-03T06:10:57.376Z,18.60
2018-05-03T06:11:57.569Z,18.60
2018-05-03T06:12:57.362Z,17.10
2018-05-03T06:13:57.354Z,16.60
2018-05-03T06:14:57.346Z,16.80
2018-05-03T06:15:57.340Z,19.60
2018-05-03T06:16:57.334Z,19.80
2018-05-03T06:17:57.525Z,19.10
2018-05-03T06:18:57.316Z,20.70
2018-05-03T06:19:57.313Z,20.20
2018-05-03T06:20:57.302Z,20.00
2018-05-03T06:21:57.295Z,20.10
2018-05-03T06:22:57.289Z,21.40
2018-05-03T06:23:57.281Z,22.40
2018-05-03T06:24:57.272Z,23.10
2018-05-03T06:25:57.334Z,25.00
2018-05-03T06:26:57.257Z,26.70
2018-05-03T06:27:57.254Z,25.60
2018-05-03T06:28:57.243Z,27.10
2018-05-03T06:29:57.235Z,27.00
2018-05-03T06:31:02.259Z,27.20
2018-05-03T06:31:57.221Z,27.90
2018-05-03T06:32:57.213Z,28.90
2018-05-03T06:33:57.206Z,27.70
2018-05-03T06:34:57.199Z,27.30
2018-05-03T06:35:57.392Z,28.30
2018-05-03T06:36:57.183Z,26.80
2018-05-03T06:37:57.177Z,27.10
2018-05-03T06:38:57.175Z,27.30
2018-05-03T06:39:57.165Z,26.80
2018-05-03T06:40:57.155Z,25.80
2018-05-03T06:41:57.148Z,26.00
2018-05-03T06:42:57.139Z,26.20
2018-05-03T06:43:57.132Z,27.10
2018-05-03T06:44:57.126Z,26.50
2018-05-03T06:45:57.119Z,26.50
2018-05-03T06:46:57.122Z,27.60
2018-05-03T06:47:57.102Z,25.20
2018-05-03T06:48:57.096Z,25.90
2018-05-03T06:49:57.089Z,24.60
2018-05-03T06:50:57.082Z,25.50
2018-05-03T06:51:57.080Z,26.60
2018-05-03T06:52:57.067Z,26.40
2018-05-03T06:53:57.060Z,25.10
2018-05-03T06:54:57.053Z,25.90
2018-05-03T06:55:57.045Z,26.20
2018-05-03T06:56:57.038Z,24.30
2018-05-03T06:57:57.031Z,24.40
2018-05-03T06:58:57.025Z,25.30
2018-05-03T06:59:57.017Z,25.50
2018-05-03T07:00:57.011Z,24.80
2018-05-03T07:01:57.002Z,23.90
2018-05-03T07:02:56.997Z,24.60
2018-05-03T07:03:57.022Z,24.50
2018-05-03T07:04:56.982Z,24.50
2018-05-03T07:05:56.989Z,22.80
2018-05-03T07:06:56.967Z,22.90
2018-05-03T07:07:56.960Z,22.50
2018-05-03T07:08:56.953Z,23.20
2018-05-03T07:09:56.987Z,21.80
2018-05-03T07:10:56.938Z,22.60
2018-05-03T07:11:56.931Z,22.30
2018-05-03T07:12:56.923Z,23.20
2018-05-03T07:13:56.915Z,22.00
2018-05-03T07:14:56.909Z,21.50
2018-05-03T07:15:56.900Z,21.30
2018-05-03T07:16:56.894Z,21.90
2018-05-03T07:17:56.886Z,21.70
2018-05-03T07:18:56.879Z,21.00
2018-05-03T07:19:56.872Z,21.00
2018-05-03T07:20:56.864Z,20.80
2018-05-03T07:21:56.859Z,20.20
2018-05-03T07:22:56.850Z,20.80
2018-05-03T07:23:56.843Z,20.40
2018-05-03T07:24:56.835Z,21.60
2018-05-03T07:25:56.829Z,20.00
2018-05-03T07:26:56.822Z,20.40
2018-05-03T07:27:56.814Z,20.20
2018-05-03T07:28:56.807Z,19.40
2018-05-03T07:29:56.800Z,20.10
2018-05-03T07:30:56.792Z,19.30
2018-05-03T07:31:56.786Z,19.30
2018-05-03T07:32:56.778Z,20.00
2018-05-03T07:33:56.777Z,20.00
2018-05-03T07:34:56.763Z,20.10
2018-05-03T07:35:56.756Z,20.50
2018-05-03T07:36:56.750Z,19.50
2018-05-03T07:37:56.741Z,19.10
2018-05-03T07:38:56.733Z,20.70
2018-05-03T07:39:56.726Z,19.50
2018-05-03T07:40:56.725Z,19.20
2018-05-03T07:41:56.713Z,19.60
2018-05-03T07:42:56.704Z,19.60
2018-05-03T07:43:56.698Z,20.60
2018-05-03T07:44:56.689Z,19.30
2018-05-03T07:45:56.683Z,19.00
2018-05-03T07:46:56.674Z,20.50
2018-05-03T07:47:56.666Z,20.30
2018-05-03T07:48:56.662Z,19.90
2018-05-03T07:49:56.652Z,19.40
2018-05-03T07:50:56.644Z,19.40
2018-05-03T07:51:56.638Z,21.10
2018-05-03T07:52:56.631Z,19.80
2018-05-03T07:53:56.622Z,19.60
2018-05-03T07:54:56.616Z,18.70
2018-05-03T07:55:56.607Z,20.20
2018-05-03T07:56:56.601Z,21.60
2018-05-03T07:57:56.598Z,20.10
2018-05-03T07:58:56.585Z,20.60
2018-05-03T07:59:56.578Z,20.30
2018-05-03T08:00:56.570Z,20.70
2018-05-03T08:01:56.563Z,20.20
2018-05-03T08:02:56.555Z,20.40
2018-05-03T08:03:56.550Z,21.00
2018-05-03T08:04:56.546Z,19.40
2018-05-03T08:05:56.536Z,20.10
2018-05-03T08:06:56.526Z,20.10
2018-05-03T08:07:56.522Z,20.80
2018-05-03T08:08:56.512Z,20.60
2018-05-03T08:09:56.505Z,21.20
2018-05-03T08:10:56.522Z,19.90
2018-05-03T08:11:56.491Z,20.40
2018-05-03T08:12:56.483Z,20.10
2018-05-03T08:13:56.477Z,21.00
2018-05-03T08:14:56.468Z,21.30
2018-05-03T08:15:56.460Z,21.30
2018-05-03T08:16:56.469Z,21.00
2018-05-03T08:17:56.647Z,21.40
2018-05-03T08:18:56.440Z,20.10
2018-05-03T08:19:56.431Z,21.00
2018-05-03T08:20:56.426Z,20.20
2018-05-03T08:21:56.419Z,21.80
2018-05-03T08:22:56.411Z,22.60
2018-05-03T08:23:56.402Z,21.00
2018-05-03T08:24:56.397Z,21.30
2018-05-03T08:25:56.389Z,20.80
2018-05-03T08:26:56.384Z,20.40
2018-05-03T08:27:56.374Z,20.90
2018-05-03T08:28:56.368Z,20.60
2018-05-03T08:29:56.360Z,20.50
2018-05-03T08:30:56.352Z,20.50
2018-05-03T08:31:56.345Z,21.20
2018-05-03T08:32:56.339Z,21.00
2018-05-03T08:33:56.331Z,20.40
2018-05-03T08:34:56.324Z,21.50
2018-05-03T08:35:56.317Z,20.60
2018-05-03T08:36:56.309Z,21.10
2018-05-03T08:37:56.301Z,20.50
2018-05-03T08:38:56.292Z,21.30
2018-05-03T08:39:56.287Z,20.50
2018-05-03T08:40:56.279Z,21.40
2018-05-03T08:41:56.280Z,20.70
2018-05-03T08:42:56.264Z,21.30
2018-05-03T08:43:56.257Z,21.70
2018-05-03T08:44:56.249Z,22.20
2018-05-03T08:45:56.242Z,21.90
2018-05-03T08:46:56.236Z,21.90
2018-05-03T08:47:56.227Z,21.90
2018-05-03T08:48:56.220Z,22.10
2018-05-03T08:49:56.212Z,22.50
2018-05-03T08:50:56.204Z,20.80
2018-05-03T08:51:56.200Z,21.70
2018-05-03T08:52:56.189Z,22.00
2018-05-03T08:53:56.183Z,21.50
2018-05-03T08:54:56.175Z,22.30
2018-05-03T08:55:56.168Z,21.80
2018-05-03T08:56:56.160Z,20.80
2018-05-03T08:57:56.154Z,21.90
2018-05-03T08:58:56.145Z,21.90
2018-05-03T08:59:56.139Z,22.50
2018-05-03T09:00:56.154Z,21.90
2018-05-03T09:01:56.151Z,21.80
2018-05-03T09:02:56.116Z,20.90
2018-05-03T09:03:56.108Z,21.40
2018-05-03T09:04:56.102Z,22.20
2018-05-03T09:05:56.095Z,21.30
2018-05-03T09:06:56.085Z,21.10
2018-05-03T09:07:56.102Z,21.90
2018-05-03T09:08:56.072Z,22.30
2018-05-03T09:09:56.064Z,21.70
2018-05-03T09:10:56.056Z,22.80
2018-05-03T09:11:56.049Z,23.90
2018-05-03T09:12:56.042Z,23.20
2018-05-03T09:13:56.035Z,23.30
2018-05-03T09:14:56.026Z,23.80
2018-05-03T09:15:56.020Z,22.60
2018-05-03T09:16:56.013Z,22.90
2018-05-03T09:17:56.208Z,22.20
2018-05-03T09:18:55.997Z,22.80
2018-05-03T09:19:55.992Z,23.50
2018-05-03T09:20:55.984Z,22.40
2018-05-03T09:21:55.976Z,22.20
2018-05-03T09:22:55.968Z,22.50
2018-05-03T09:23:55.961Z,23.50
2018-05-03T09:24:55.955Z,21.80
2018-05-03T09:25:55.947Z,23.10
2018-05-03T09:26:55.940Z,21.60
2018-05-03T09:27:55.932Z,22.60
2018-05-03T09:28:55.935Z,23.00
2018-05-03T09:29:56.119Z,22.60
2018-05-03T09:30:55.909Z,23.20
2018-05-03T09:31:55.911Z,23.20
2018-05-03T09:32:55.897Z,23.00
2018-05-03T09:33:55.888Z,22.60
2018-05-03T09:34:55.880Z,23.50
2018-05-03T09:35:55.873Z,22.00
2018-05-03T09:36:55.866Z,23.60
2018-05-03T09:37:55.860Z,21.90
2018-05-03T09:38:55.851Z,22.10
2018-05-03T09:39:55.846Z,22.00
2018-05-03T09:40:55.843Z,22.00
2018-05-03T09:41:56.031Z,21.70
2018-05-03T09:42:55.822Z,21.00
2018-05-03T09:43:55.814Z,20.80
2018-05-03T09:44:55.807Z,20.10
2018-05-03T09:45:55.801Z,21.30
2018-05-03T09:46:55.794Z,21.40
2018-05-03T09:47:55.787Z,20.60
2018-05-03T09:48:55.778Z,20.80
2018-05-03T09:49:55.771Z,20.90
2018-05-03T09:50:55.762Z,21.10
2018-05-03T09:51:55.755Z,21.80
2018-05-03T09:52:55.749Z,22.20
2018-05-03T09:53:55.741Z,20.50
2018-05-03T09:54:55.734Z,21.10
2018-05-03T09:55:55.728Z,22.20
2018-05-03T09:56:55.723Z,21.10
2018-05-03T09:57:55.713Z,21.90
2018-05-03T09:58:55.704Z,24.00
2018-05-03T09:59:55.897Z,22.90
2018-05-03T10:00:55.689Z,22.00
2018-05-03T10:01:55.684Z,24.90
2018-05-03T10:02:55.676Z,24.40
2018-05-03T10:03:55.667Z,24.10
2018-05-03T10:04:55.661Z,23.70
2018-05-03T10:05:55.657Z,25.20
2018-05-03T10:06:55.644Z,24.40
2018-05-03T10:07:55.638Z,24.50
2018-05-03T10:08:55.630Z,24.70
2018-05-03T10:09:55.623Z,26.70
2018-05-03T10:10:55.616Z,27.00
2018-05-03T10:11:55.607Z,27.00
2018-05-03T10:12:55.600Z,25.70
2018-05-03T10:13:55.592Z,26.00
2018-05-03T10:14:55.587Z,25.80
2018-05-03T10:15:55.576Z,25.10
2018-05-03T10:16:55.569Z,25.40
2018-05-03T10:17:55.762Z,26.00
2018-05-03T10:18:55.554Z,24.70
2018-05-03T10:19:55.548Z,25.90
2018-05-03T10:20:55.541Z,28.10
2018-05-03T10:21:55.536Z,27.80
2018-05-03T10:22:55.524Z,29.90
2018-05-03T10:23:55.517Z,29.60
2018-05-03T10:24:55.509Z,29.60
2018-05-03T10:25:55.502Z,30.80
2018-05-03T10:26:55.498Z,30.10
2018-05-03T10:27:55.488Z,29.10
2018-05-03T10:28:55.480Z,29.90
2018-05-03T10:29:55.475Z,29.70
2018-05-03T10:30:55.468Z,28.90
2018-05-03T10:31:55.458Z,29.60
2018-05-03T10:32:55.449Z,31.20
2018-05-03T10:33:55.445Z,31.20
2018-05-03T10:34:55.434Z,32.80
2018-05-03T10:35:55.445Z,30.10
2018-05-03T10:36:55.425Z,31.20
2018-05-03T10:37:55.412Z,32.00
2018-05-03T10:38:55.405Z,31.80
2018-05-03T10:39:55.400Z,33.80
2018-05-03T10:40:55.390Z,35.50
2018-05-03T10:41:55.430Z,35.70
2018-05-03T10:42:55.379Z,35.80
2018-05-03T10:43:55.371Z,35.90
2018-05-03T10:44:55.365Z,36.50
2018-05-03T10:45:55.354Z,36.80
2018-05-03T10:46:55.348Z,36.60
2018-05-03T10:47:55.438Z,36.70
2018-05-03T10:48:55.331Z,36.50
2018-05-03T10:49:55.324Z,36.40
2018-05-03T10:50:55.318Z,35.30
2018-05-03T10:51:55.309Z,37.20
2018-05-03T10:52:55.304Z,36.00
2018-05-03T10:53:55.299Z,37.00
2018-05-03T10:54:55.291Z,36.00
2018-05-03T10:55:55.279Z,35.20
2018-05-03T10:56:55.271Z,36.40
2018-05-03T10:57:55.262Z,35.60
2018-05-03T10:58:55.263Z,36.10
2018-05-03T10:59:55.271Z,34.60
2018-05-03T11:00:55.265Z,34.50
2018-05-03T11:01:55.235Z,35.10
2018-05-03T11:02:55.225Z,34.70
2018-05-03T11:03:55.218Z,35.10
2018-05-03T11:04:55.211Z,34.50
2018-05-03T11:05:55.204Z,34.80
2018-05-03T11:06:55.196Z,35.30
2018-05-03T11:07:55.189Z,33.20
2018-05-03T11:08:55.182Z,36.60
2018-05-03T11:09:55.176Z,35.00
2018-05-03T11:10:55.169Z,35.90
2018-05-03T11:11:55.161Z,36.20
2018-05-03T11:12:55.154Z,35.90
2018-05-03T11:13:55.148Z,34.30
2018-05-03T11:14:55.140Z,35.10
2018-05-03T11:15:55.132Z,34.80
2018-05-03T11:16:55.125Z,33.90
2018-05-03T11:17:55.118Z,34.30
2018-05-03T11:18:55.112Z,34.00
2018-05-03T11:19:55.107Z,33.80
2018-05-03T11:20:55.111Z,33.30
2018-05-03T11:21:55.091Z,33.90
2018-05-03T11:22:55.089Z,34.10
2018-05-03T11:23:55.077Z,35.20
2018-05-03T11:24:55.073Z,34.30
2018-05-03T11:25:55.103Z,32.70
2018-05-03T11:26:55.078Z,33.70
2018-05-03T11:27:55.058Z,32.70
2018-05-03T11:28:55.059Z,33.50
2018-05-03T11:29:55.234Z,32.10
2018-05-03T11:30:55.027Z,32.40
2018-05-03T11:31:55.030Z,32.00
2018-05-03T11:32:55.018Z,31.40
2018-05-03T11:33:55.075Z,31.00
2018-05-03T11:34:54.999Z,31.70
2018-05-03T11:35:54.991Z,29.70
2018-05-03T11:36:55.009Z,31.30
2018-05-03T11:37:54.979Z,31.90
2018-05-03T11:38:54.973Z,31.90
2018-05-03T11:39:54.968Z,31.50
2018-05-03T11:40:54.960Z,28.70
2018-05-03T11:41:54.952Z,30.40
2018-05-03T11:42:54.945Z,29.10
2018-05-03T11:43:54.938Z,30.00
2018-05-03T11:44:54.933Z,29.80
2018-05-03T11:45:54.929Z,29.90
2018-05-03T11:46:54.924Z,27.70
2018-05-03T11:47:54.913Z,28.70
2018-05-03T11:48:54.908Z,29.00
2018-05-03T11:49:54.905Z,28.40
2018-05-03T11:50:54.907Z,28.10
2018-05-03T11:51:54.890Z,29.30
2018-05-03T11:52:54.884Z,25.90
2018-05-03T11:53:54.877Z,25.40
2018-05-03T11:54:54.870Z,25.40
2018-05-03T11:55:54.867Z,25.60
2018-05-03T11:56:54.858Z,24.00
2018-05-03T11:57:54.853Z,26.00
2018-05-03T11:58:54.848Z,25.00
2018-05-03T11:59:54.992Z,23.90
2018-05-03T12:00:54.836Z,24.30
2018-05-03T12:01:54.838Z,21.90
2018-05-03T12:02:54.824Z,24.30
2018-05-03T12:03:54.819Z,24.00
2018-05-03T12:04:54.844Z,24.30
2018-05-03T12:05:54.885Z,26.20
2018-05-03T12:06:54.802Z,26.00
2018-05-03T12:07:54.799Z,26.00
2018-05-03T12:08:54.793Z,24.50
2018-05-03T12:09:54.786Z,25.70
2018-05-03T12:10:54.780Z,26.90
2018-05-03T12:11:54.775Z,28.30
2018-05-03T12:12:54.770Z,24.50
2018-05-03T12:13:54.765Z,26.00
2018-05-03T12:14:54.759Z,27.00
2018-05-03T12:15:54.755Z,26.40
2018-05-03T12:16:54.748Z,27.00
2018-05-03T12:17:54.742Z,27.40
2018-05-03T12:18:54.734Z,27.40
2018-05-03T12:19:54.729Z,27.30
2018-05-03T12:20:54.725Z,28.20
2018-05-03T12:21:54.719Z,26.80
2018-05-03T12:22:54.712Z,25.40
2018-05-03T12:23:54.707Z,25.80
2018-05-03T12:24:54.702Z,25.00
2018-05-03T12:25:54.696Z,26.60
2018-05-03T12:26:54.690Z,26.40
2018-05-03T12:27:54.684Z,25.00
2018-05-03T12:28:54.682Z,25.10
2018-05-03T12:29:54.676Z,27.00
2018-05-03T12:30:54.668Z,25.20
2018-05-03T12:31:54.663Z,24.80
2018-05-03T12:32:54.659Z,24.50
2018-05-03T12:33:54.653Z,24.50
2018-05-03T12:34:54.667Z,26.20
2018-05-03T12:35:54.643Z,24.50
2018-05-03T12:36:54.638Z,25.50
2018-05-03T12:37:54.631Z,26.20
2018-05-03T12:38:54.626Z,25.60
2018-05-03T12:39:54.621Z,23.00
2018-05-03T12:40:54.617Z,25.70
2018-05-03T12:41:54.613Z,24.60
2018-05-03T12:42:54.607Z,23.70
2018-05-03T12:43:54.604Z,23.60
2018-05-03T12:44:54.599Z,22.60
2018-05-03T12:45:54.597Z,23.70
2018-05-03T12:46:54.590Z,25.10
2018-05-03T12:47:54.585Z,24.10
2018-05-03T12:48:54.585Z,21.30
2018-05-03T12:49:54.588Z,22.10
2018-05-03T12:50:54.571Z,22.20
2018-05-03T12:51:54.568Z,21.50
2018-05-03T12:52:54.565Z,21.30